createdAt,value
2022-12-19T00:01:04.728Z,13.57
2022-12-19T00:03:31.627Z,12.40
2022-12-19T00:06:02.157Z,13.88
2022-12-19T00:08:28.806Z,13.13
2022-12-19T00:10:58.074Z,14.50
2022-12-19T00:13:25.163Z,13.20
2022-12-19T00:15:52.056Z,14.52
2022-12-19T00:18:18.643Z,13.93
2022-12-19T00:20:45.283Z,14.68
2022-12-19T00:23:11.870Z,13.93
2022-12-19T00:25:39.651Z,14.60
2022-12-19T00:28:06.796Z,15.00
2022-12-19T00:30:33.383Z,15.05
2022-12-19T00:33:00.264Z,16.08
2022-12-19T00:35:26.822Z,15.85
2022-12-19T00:37:53.355Z,14.20
2022-12-19T00:40:19.994Z,12.20
2022-12-19T00:42:53.229Z,15.45
2022-12-19T00:45:20.150Z,14.77
2022-12-19T00:47:46.772Z,16.63
2022-12-19T00:50:13.434Z,14.45
2022-12-19T00:52:39.975Z,15.75
2022-12-19T00:55:11.189Z,16.27
2022-12-19T00:57:45.209Z,14.55
2022-12-19T01:00:12.415Z,13.55
2022-12-19T01:02:39.054Z,15.15
2022-12-19T01:05:06.156Z,14.73
2022-12-19T01:07:32.791Z,15.23
2022-12-19T01:09:59.586Z,15.05
2022-12-19T01:12:44.790Z,15.75
2022-12-19T01:15:12.378Z,15.35
2022-12-19T01:17:44.209Z,15.85
2022-12-19T01:20:12.740Z,16.50
2022-12-19T01:22:39.334Z,17.17
2022-12-19T01:25:07.038Z,15.38
2022-12-19T01:27:33.645Z,16.05
2022-12-19T01:30:01.132Z,16.88
2022-12-19T01:32:27.773Z,15.97
2022-12-19T01:34:54.377Z,16.27
2022-12-19T01:37:21.208Z,14.23
2022-12-19T01:39:47.783Z,17.98
2022-12-19T01:42:17.680Z,16.10
2022-12-19T01:45:13.854Z,14.90
2022-12-19T01:47:50.505Z,16.27
2022-12-19T01:50:58.454Z,14.88
2022-12-19T01:53:32.249Z,16.13
2022-12-19T01:55:59.355Z,16.55
2022-12-19T01:58:25.954Z,15.98
2022-12-19T02:00:52.594Z,17.20
2022-12-19T02:03:28.277Z,16.73
2022-12-19T02:05:55.484Z,15.55
2022-12-19T02:08:23.766Z,17.55
2022-12-19T02:10:50.967Z,16.88
2022-12-19T02:13:18.164Z,16.25
2022-12-19T02:15:51.008Z,17.48
2022-12-19T02:18:29.611Z,16.88
2022-12-19T02:21:29.772Z,16.08
2022-12-19T02:24:22.760Z,15.80
2022-12-19T02:27:16.855Z,15.32
2022-12-19T02:29:43.376Z,13.50
2022-12-19T02:32:20.175Z,14.95
2022-12-19T02:35:08.393Z,14.68
2022-12-19T02:40:11.222Z,12.75
2022-12-19T02:42:44.349Z,14.05
2022-12-19T02:45:14.978Z,13.23
2022-12-19T02:47:46.900Z,13.80
2022-12-19T02:50:13.481Z,14.40
2022-12-19T02:52:39.995Z,13.30
2022-12-19T02:55:11.127Z,14.18
2022-12-19T02:58:03.478Z,13.90
2022-12-19T03:00:30.220Z,15.20
2022-12-19T03:03:00.935Z,15.77
2022-12-19T03:05:46.002Z,16.00
2022-12-19T03:08:26.621Z,14.13
2022-12-19T03:11:03.071Z,14.95
2022-12-19T03:13:38.192Z,14.88
2022-12-19T03:16:09.143Z,13.68
2022-12-19T03:18:36.183Z,15.50
2022-12-19T03:21:06.763Z,14.18
2022-12-19T03:23:33.363Z,14.45
2022-12-19T03:26:10.038Z,13.95
2022-12-19T03:28:51.088Z,13.77
2022-12-19T03:31:19.765Z,14.88
2022-12-19T03:33:48.321Z,14.88
2022-12-19T03:38:45.695Z,13.43
2022-12-19T03:41:14.709Z,12.98
2022-12-19T03:43:43.558Z,14.18
2022-12-19T03:46:19.064Z,14.65
2022-12-19T03:48:51.799Z,14.07
2022-12-19T03:51:30.409Z,12.88
2022-12-19T03:54:10.228Z,13.10
2022-12-19T03:56:42.405Z,12.73
2022-12-19T03:59:34.022Z,13.98
2022-12-19T04:02:02.015Z,12.43
2022-12-19T04:04:29.366Z,13.20
2022-12-19T04:06:56.647Z,11.90
2022-12-19T04:09:23.985Z,12.67
2022-12-19T04:11:54.031Z,11.77
2022-12-19T04:14:26.729Z,12.88
2022-12-19T04:17:06.594Z,14.40
2022-12-19T04:19:41.190Z,12.65
2022-12-19T04:22:15.188Z,12.95
2022-12-19T04:24:43.604Z,12.80
2022-12-19T04:29:38.113Z,12.52
2022-12-19T04:32:06.359Z,13.32
2022-12-19T04:34:33.219Z,14.10
2022-12-19T04:37:03.594Z,13.13
2022-12-19T04:39:30.319Z,13.07
2022-12-19T04:41:56.874Z,12.65
2022-12-19T04:44:23.468Z,12.10
2022-12-19T04:46:50.113Z,14.15
2022-12-19T04:49:16.795Z,13.65
2022-12-19T04:51:43.346Z,13.10
2022-12-19T04:54:09.889Z,12.38
2022-12-19T04:56:36.481Z,14.82
2022-12-19T04:59:03.140Z,14.80
2022-12-19T05:01:29.837Z,13.95
2022-12-19T05:04:01.238Z,13.25
2022-12-19T05:06:30.888Z,14.02
2022-12-19T05:08:57.440Z,14.43
2022-12-19T05:11:24.046Z,13.23
2022-12-19T05:13:50.600Z,13.50
2022-12-19T05:16:17.391Z,13.50
2022-12-19T05:18:44.572Z,13.07
2022-12-19T05:21:11.417Z,12.90
2022-12-19T05:23:38.006Z,12.60
2022-12-19T05:26:05.938Z,13.23
2022-12-19T05:28:33.161Z,12.80
2022-12-19T05:31:11.332Z,13.02
2022-12-19T05:33:38.741Z,13.48
2022-12-19T05:36:06.073Z,13.82
2022-12-19T05:38:32.906Z,13.65
2022-12-19T05:40:59.763Z,13.35
2022-12-19T05:43:26.529Z,14.98
2022-12-19T05:45:53.068Z,13.43
2022-12-19T05:48:19.695Z,13.70
2022-12-19T05:50:50.218Z,13.27
2022-12-19T05:53:20.745Z,13.88
2022-12-19T05:55:51.170Z,13.88
2022-12-19T05:58:20.755Z,13.38
2022-12-19T06:00:47.313Z,12.98
2022-12-19T06:03:13.980Z,14.10
2022-12-19T06:05:40.613Z,14.55
2022-12-19T06:08:07.258Z,13.77
2022-12-19T06:10:34.339Z,14.30
2022-12-19T06:13:01.154Z,14.18
2022-12-19T06:15:28.022Z,13.77
2022-12-19T06:17:55.319Z,14.93
2022-12-19T06:20:22.041Z,12.88
2022-12-19T06:22:48.632Z,14.00
2022-12-19T06:25:15.222Z,13.60
2022-12-19T06:27:41.795Z,14.48
2022-12-19T06:30:08.883Z,14.73
2022-12-19T06:32:38.080Z,13.23
2022-12-19T06:35:05.677Z,13.52
2022-12-19T06:37:32.259Z,13.10
2022-12-19T06:39:58.839Z,13.70
2022-12-19T06:42:25.671Z,14.68
2022-12-19T06:44:54.342Z,14.82
2022-12-19T06:47:22.655Z,16.58
2022-12-19T06:49:49.592Z,16.35
2022-12-19T06:52:17.326Z,15.00
2022-12-19T06:54:45.183Z,13.00
2022-12-19T06:57:11.761Z,13.98
2022-12-19T06:59:38.387Z,15.20
2022-12-19T07:02:08.006Z,13.50
2022-12-19T07:04:38.083Z,14.02
2022-12-19T07:07:05.318Z,14.43
2022-12-19T07:09:33.709Z,12.20
2022-12-19T07:12:01.300Z,13.23
2022-12-19T07:14:27.869Z,13.20
2022-12-19T07:16:55.107Z,12.73
2022-12-19T07:19:22.626Z,13.90
2022-12-19T07:21:49.453Z,14.07
2022-12-19T07:24:16.066Z,12.77
2022-12-19T07:26:43.790Z,12.35
2022-12-19T07:29:12.141Z,13.15
2022-12-19T07:31:38.915Z,12.50
2022-12-19T07:34:05.657Z,13.70
2022-12-19T07:36:32.483Z,13.52
2022-12-19T07:38:59.337Z,13.15
2022-12-19T07:41:25.912Z,13.05
2022-12-19T07:43:52.487Z,13.52
2022-12-19T07:46:19.290Z,14.80
2022-12-19T07:48:45.958Z,14.00
2022-12-19T07:51:12.549Z,14.45
2022-12-19T07:53:39.110Z,12.57
2022-12-19T07:56:05.979Z,14.45
2022-12-19T07:58:32.711Z,14.30
2022-12-19T08:01:03.205Z,15.00
2022-12-19T08:03:33.519Z,15.07
2022-12-19T08:06:01.156Z,14.50
2022-12-19T08:08:28.490Z,13.15
2022-12-19T08:10:55.086Z,13.40
2022-12-19T08:13:21.656Z,14.68
2022-12-19T08:15:48.337Z,14.82
2022-12-19T08:18:14.959Z,14.38
2022-12-19T08:20:45.708Z,13.00
2022-12-19T08:23:12.269Z,14.25
2022-12-19T08:25:38.859Z,13.10
2022-12-19T08:28:05.484Z,12.25
2022-12-19T08:30:32.161Z,13.55
2022-12-19T08:32:58.801Z,13.02
2022-12-19T08:35:25.417Z,14.35
2022-12-19T08:37:51.955Z,12.10
2022-12-19T08:40:18.771Z,12.50
2022-12-19T08:42:45.330Z,13.23
2022-12-19T08:45:12.100Z,13.48
2022-12-19T08:47:38.736Z,12.57
2022-12-19T08:50:05.824Z,13.50
2022-12-19T08:52:32.484Z,13.35
2022-12-19T08:54:59.171Z,11.65
2022-12-19T08:57:26.211Z,12.75
2022-12-19T08:59:52.773Z,12.23
2022-12-19T09:02:20.289Z,13.55
2022-12-19T09:05:47.727Z,12.10
2022-12-19T09:07:37.613Z,11.68
2022-12-19T09:10:06.005Z,11.82
2022-12-19T09:12:32.586Z,12.35
2022-12-19T09:14:59.146Z,12.90
2022-12-19T09:17:25.709Z,11.95
2022-12-19T09:19:52.621Z,11.70
2022-12-19T09:22:19.173Z,11.35
2022-12-19T09:24:45.820Z,11.60
2022-12-19T09:27:12.444Z,12.68
2022-12-19T09:29:40.808Z,11.98
2022-12-19T09:32:07.500Z,10.80
2022-12-19T09:34:38.498Z,10.77
2022-12-19T09:37:16.258Z,10.23
2022-12-19T09:39:45.537Z,8.93
2022-12-19T09:42:23.579Z,9.38
2022-12-19T09:45:32.082Z,8.30
2022-12-19T09:48:00.634Z,9.55
2022-12-19T09:50:43.302Z,8.98
2022-12-19T09:53:20.048Z,8.60
2022-12-19T09:55:46.824Z,9.18
2022-12-19T09:58:32.935Z,8.82
2022-12-19T10:01:04.738Z,8.57
2022-12-19T10:03:39.625Z,8.55
2022-12-19T10:07:12.593Z,9.07
2022-12-19T10:10:45.288Z,8.00
2022-12-19T10:12:45.818Z,9.85
2022-12-19T10:15:14.880Z,8.95
2022-12-19T10:18:26.425Z,9.43
2022-12-19T10:20:56.799Z,10.13
2022-12-19T10:23:45.615Z,9.32
2022-12-19T10:26:27.330Z,9.80
2022-12-19T10:29:12.263Z,8.88
2022-12-19T10:31:57.534Z,9.98
2022-12-19T10:34:30.734Z,8.90
2022-12-19T10:37:26.899Z,9.23
2022-12-19T10:39:55.145Z,9.90
2022-12-19T10:42:37.000Z,8.40
2022-12-19T10:45:11.510Z,9.43
2022-12-19T10:47:38.828Z,9.50
2022-12-19T10:50:09.554Z,10.15
2022-12-19T10:53:07.265Z,9.82
2022-12-19T10:55:45.575Z,9.35
2022-12-19T10:58:21.460Z,10.35
2022-12-19T11:00:54.330Z,8.43
2022-12-19T11:03:21.211Z,9.48
2022-12-19T11:05:57.839Z,8.93
2022-12-19T11:08:27.854Z,8.65
2022-12-19T11:12:24.235Z,7.97
2022-12-19T11:20:09.396Z,9.20
2022-12-19T11:22:05.355Z,9.13
2022-12-19T11:29:25.719Z,8.98
2022-12-19T11:29:46.626Z,9.85
2022-12-19T11:30:08.652Z,9.93
2022-12-19T11:30:43.174Z,9.55
2022-12-19T11:34:12.943Z,10.60
2022-12-19T11:36:45.638Z,9.45
2022-12-19T11:39:48.488Z,9.88
2022-12-19T11:42:25.319Z,9.35
2022-12-19T11:45:03.777Z,8.95
2022-12-19T11:50:18.862Z,8.98
2022-12-19T11:53:14.648Z,9.80
2022-12-19T11:56:08.112Z,9.25
2022-12-19T11:58:46.437Z,9.68
2022-12-19T12:01:29.712Z,9.85
2022-12-19T12:04:33.173Z,9.45
2022-12-19T12:07:00.292Z,8.85
2022-12-19T12:12:47.441Z,9.27
2022-12-19T12:21:10.558Z,8.43
2022-12-19T12:27:36.800Z,9.10
2022-12-19T12:31:39.390Z,8.93
2022-12-19T12:31:39.937Z,9.27
2022-12-19T12:31:49.680Z,7.90
2022-12-19T12:31:57.248Z,8.35
2022-12-19T12:35:38.341Z,9.05
2022-12-19T12:38:18.730Z,9.25
2022-12-19T12:41:19.854Z,8.45
2022-12-19T12:43:52.339Z,8.50
2022-12-19T12:46:27.821Z,8.50
2022-12-19T12:49:05.590Z,8.52
2022-12-19T12:51:33.320Z,9.73
2022-12-19T12:54:05.133Z,8.77
2022-12-19T12:56:32.415Z,8.23
2022-12-19T12:59:02.065Z,8.85
2022-12-19T13:01:28.741Z,8.07
2022-12-19T13:04:04.413Z,8.13
2022-12-19T13:06:38.755Z,7.95
2022-12-19T13:09:14.085Z,8.35
2022-12-19T13:12:03.853Z,8.65
2022-12-19T13:14:37.239Z,8.77
2022-12-19T13:17:08.678Z,8.50
2022-12-19T13:19:40.301Z,9.25
2022-12-19T13:22:09.825Z,9.40
2022-12-19T13:24:47.002Z,8.88
2022-12-19T13:27:40.669Z,8.45
2022-12-19T13:30:10.469Z,9.35
2022-12-19T13:32:39.976Z,9.43
2022-12-19T13:36:30.730Z,8.80
2022-12-19T13:39:55.428Z,9.88
2022-12-19T13:41:26.357Z,8.98
2022-12-19T13:43:55.844Z,8.93
2022-12-19T13:46:31.613Z,9.43
2022-12-19T13:49:09.857Z,8.98
2022-12-19T13:51:48.477Z,8.45
2022-12-19T13:54:32.148Z,9.00
2022-12-19T13:56:59.341Z,9.32
2022-12-19T13:59:34.011Z,9.00
2022-12-19T14:02:08.095Z,8.30
2022-12-19T14:04:34.963Z,8.95
2022-12-19T14:07:04.433Z,8.98
2022-12-19T14:11:31.161Z,8.45
2022-12-19T14:13:51.086Z,8.30
2022-12-19T14:15:42.229Z,9.70
2022-12-19T14:18:45.165Z,8.93
2022-12-19T14:22:07.899Z,8.60
2022-12-19T14:24:18.587Z,8.75
2022-12-19T14:28:20.447Z,8.95
2022-12-19T14:30:26.375Z,8.30
2022-12-19T14:33:47.103Z,8.40
2022-12-19T14:36:10.008Z,8.18
2022-12-19T14:39:22.027Z,8.93
2022-12-19T14:42:00.646Z,8.50
2022-12-19T14:53:52.383Z,9.38
2022-12-19T14:54:05.399Z,9.75
2022-12-19T14:54:15.728Z,9.30
2022-12-19T14:54:21.708Z,10.13
2022-12-19T14:56:46.749Z,8.18
2022-12-19T14:59:04.468Z,9.38
2022-12-19T15:01:33.698Z,8.52
2022-12-19T15:04:48.086Z,9.60
2022-12-19T15:07:08.676Z,9.25
2022-12-19T15:11:05.182Z,8.88
2022-12-19T15:14:47.390Z,9.75
2022-12-19T15:16:03.967Z,8.48
2022-12-19T15:18:42.875Z,9.18
2022-12-19T15:21:14.350Z,8.63
2022-12-19T15:23:41.498Z,8.77
2022-12-19T15:26:13.427Z,9.68
2022-12-19T15:28:44.253Z,10.93
2022-12-19T15:31:24.449Z,9.95
2022-12-19T15:34:32.182Z,10.20
2022-12-19T15:36:37.725Z,10.57
2022-12-19T15:39:04.550Z,12.02
2022-12-19T15:41:31.491Z,11.25
2022-12-19T15:44:06.069Z,11.50
2022-12-19T15:46:33.382Z,10.38
2022-12-19T15:49:00.161Z,11.35
2022-12-19T15:51:26.775Z,12.00
2022-12-19T15:53:53.588Z,11.75
2022-12-19T15:56:24.614Z,12.68
2022-12-19T15:58:52.351Z,12.57
2022-12-19T16:01:19.248Z,13.18
2022-12-19T16:03:46.214Z,12.25
2022-12-19T16:06:13.839Z,12.55
2022-12-19T16:08:40.702Z,12.25
2022-12-19T16:11:16.727Z,12.18
2022-12-19T16:13:45.725Z,13.63
2022-12-19T16:16:15.777Z,13.23
2022-12-19T16:18:44.464Z,12.18
2022-12-19T16:21:27.487Z,12.32
2022-12-19T16:23:58.032Z,12.75
2022-12-19T16:26:31.622Z,11.38
2022-12-19T16:28:58.375Z,12.35
2022-12-19T16:31:26.532Z,12.32
2022-12-19T16:33:54.019Z,11.63
2022-12-19T16:36:20.670Z,12.15
2022-12-19T16:38:47.382Z,11.98
2022-12-19T16:41:22.176Z,11.85
2022-12-19T16:43:48.778Z,11.95
2022-12-19T16:46:21.141Z,10.98
2022-12-19T16:48:48.248Z,11.73
2022-12-19T16:51:24.162Z,12.10
2022-12-19T16:53:52.994Z,11.55
2022-12-19T16:56:38.085Z,10.65
2022-12-19T16:59:11.766Z,15.65
2022-12-19T17:01:38.552Z,20.65
2022-12-19T17:04:05.690Z,22.15
2022-12-19T17:06:32.295Z,20.58
2022-12-19T17:08:58.900Z,20.70
2022-12-19T17:11:26.250Z,12.85
2022-12-19T17:13:57.272Z,9.77
2022-12-19T17:16:23.887Z,8.32
2022-12-19T17:18:50.663Z,9.20
2022-12-19T17:21:21.923Z,9.55
2022-12-19T17:23:49.794Z,8.52
2022-12-19T17:26:18.249Z,7.97
2022-12-19T17:28:48.097Z,7.68
2022-12-19T17:31:26.620Z,7.65
2022-12-19T17:36:26.071Z,7.95
2022-12-19T17:38:54.298Z,7.85
2022-12-19T17:41:20.896Z,7.78
2022-12-19T17:43:47.525Z,7.30
2022-12-19T17:46:22.057Z,7.43
2022-12-19T17:48:51.193Z,7.22
2022-12-19T17:51:20.467Z,7.65
2022-12-19T17:53:47.502Z,7.43
2022-12-19T17:56:15.341Z,7.60
2022-12-19T17:58:42.183Z,7.45
2022-12-19T18:01:17.061Z,7.05
2022-12-19T18:03:43.767Z,6.93
2022-12-19T18:06:12.390Z,7.35
2022-12-19T18:08:39.269Z,7.85
2022-12-19T18:11:07.834Z,6.75
2022-12-19T18:16:02.876Z,6.45
2022-12-19T18:18:34.991Z,7.22
2022-12-19T18:21:02.696Z,7.00
2022-12-19T18:23:30.668Z,6.70
2022-12-19T18:26:01.529Z,6.45
2022-12-19T18:28:29.480Z,7.38
2022-12-19T18:31:03.809Z,7.25
2022-12-19T18:33:37.188Z,6.85
2022-12-19T18:36:05.431Z,7.00
2022-12-19T18:38:32.100Z,5.97
2022-12-19T18:40:58.806Z,6.60
2022-12-19T18:43:26.318Z,7.03
2022-12-19T18:45:53.310Z,6.30
2022-12-19T18:48:25.931Z,7.22
2022-12-19T18:50:53.446Z,6.40
2022-12-19T18:53:21.849Z,5.90
2022-12-19T18:55:48.551Z,7.30
2022-12-19T18:58:15.431Z,7.28
2022-12-19T19:00:42.663Z,6.90
2022-12-19T19:03:15.195Z,6.15
2022-12-19T19:05:42.039Z,6.35
2022-12-19T19:08:16.359Z,6.47
2022-12-19T19:10:43.353Z,7.40
2022-12-19T19:13:10.351Z,7.00
2022-12-19T19:15:42.877Z,7.03
2022-12-19T19:18:09.498Z,6.95
2022-12-19T19:20:38.687Z,6.53
2022-12-19T19:23:11.524Z,6.07
2022-12-19T19:25:38.129Z,6.22
2022-12-19T19:28:05.664Z,6.28
2022-12-19T19:30:33.306Z,6.57
2022-12-19T19:33:06.238Z,5.93
2022-12-19T19:35:33.289Z,6.40
2022-12-19T19:38:02.008Z,6.70
2022-12-19T19:40:28.714Z,7.03
2022-12-19T19:42:55.285Z,6.88
2022-12-19T19:45:23.425Z,6.65
2022-12-19T19:47:49.998Z,6.70
2022-12-19T19:50:16.707Z,5.88
2022-12-19T19:52:43.342Z,6.22
2022-12-19T19:55:10.226Z,7.00
2022-12-19T19:57:37.375Z,6.50
2022-12-19T20:00:05.214Z,7.20
2022-12-19T20:02:31.920Z,7.35
2022-12-19T20:04:58.611Z,6.93
2022-12-19T20:07:25.260Z,7.45
2022-12-19T20:09:52.007Z,7.03
2022-12-19T20:12:18.735Z,7.28
2022-12-19T20:14:45.316Z,7.53
2022-12-19T20:17:11.922Z,7.28
2022-12-19T20:19:39.190Z,8.52
2022-12-19T20:22:05.872Z,7.97
2022-12-19T20:24:32.502Z,7.80
2022-12-19T20:26:59.409Z,7.93
2022-12-19T20:29:26.289Z,8.23
2022-12-19T20:31:52.913Z,7.63
2022-12-19T20:34:20.174Z,7.50
2022-12-19T20:36:46.868Z,8.20
2022-12-19T20:39:14.083Z,7.57
2022-12-19T20:41:40.687Z,7.72
2022-12-19T20:44:07.481Z,6.85
2022-12-19T20:46:34.091Z,7.65
2022-12-19T20:49:00.924Z,8.25
2022-12-19T20:51:27.520Z,8.35
2022-12-19T20:53:54.800Z,7.68
2022-12-19T20:56:23.363Z,7.03
2022-12-19T21:01:20.093Z,7.85
2022-12-19T21:03:48.482Z,7.78
2022-12-19T21:06:17.043Z,8.63
2022-12-19T21:08:43.649Z,8.85
2022-12-19T21:11:10.619Z,8.43
2022-12-19T21:13:38.191Z,7.38
2022-12-19T21:16:10.100Z,8.57
2022-12-19T21:18:38.684Z,8.63
2022-12-19T21:23:32.714Z,7.45
2022-12-19T21:26:01.440Z,7.85
2022-12-19T21:28:28.865Z,7.97
2022-12-19T21:31:03.480Z,7.40
2022-12-19T21:33:30.661Z,7.57
2022-12-19T21:35:57.278Z,7.38
2022-12-19T21:38:24.547Z,6.35
2022-12-19T21:40:51.141Z,6.53
2022-12-19T21:43:17.696Z,6.70
2022-12-19T21:45:44.323Z,6.30
2022-12-19T21:48:10.934Z,7.95
2022-12-19T21:50:37.564Z,6.55
2022-12-19T21:53:04.131Z,6.68
2022-12-19T21:55:30.769Z,6.60
2022-12-19T21:57:57.338Z,6.93
2022-12-19T22:00:23.983Z,6.88
2022-12-19T22:03:12.605Z,6.60
2022-12-19T22:05:38.217Z,5.87
2022-12-19T22:08:05.013Z,6.45
2022-12-19T22:10:31.559Z,5.65
2022-12-19T22:12:58.091Z,6.68
2022-12-19T22:15:24.640Z,6.88
2022-12-19T22:17:51.181Z,6.72
2022-12-19T22:20:17.749Z,5.82
2022-12-19T22:22:44.302Z,6.38
2022-12-19T22:25:10.849Z,6.43
2022-12-19T22:27:37.493Z,6.10
2022-12-19T22:30:10.655Z,5.72
2022-12-19T22:32:37.843Z,6.07
2022-12-19T22:35:04.779Z,5.35
2022-12-19T22:37:31.504Z,4.90
2022-12-19T22:40:00.328Z,5.50
2022-12-19T22:42:30.175Z,5.47
2022-12-19T22:44:56.758Z,5.50
2022-12-19T22:47:23.483Z,4.97
2022-12-19T22:49:53.027Z,5.82
2022-12-19T22:52:19.693Z,5.10
2022-12-19T22:54:46.248Z,5.15
2022-12-19T22:57:12.804Z,5.07
2022-12-19T22:59:39.888Z,4.78
2022-12-19T23:02:06.618Z,5.53
2022-12-19T23:04:33.382Z,4.72
2022-12-19T23:06:59.963Z,5.38
2022-12-19T23:09:26.522Z,5.53
2022-12-19T23:11:53.312Z,5.43
2022-12-19T23:14:20.131Z,4.93
2022-12-19T23:16:47.066Z,4.85
2022-12-19T23:19:17.404Z,4.75
2022-12-19T23:21:44.121Z,4.47
2022-12-19T23:24:11.022Z,4.63
2022-12-19T23:26:38.350Z,4.70
2022-12-19T23:29:10.035Z,4.63
2022-12-19T23:31:40.042Z,4.90
2022-12-19T23:34:06.784Z,4.78
2022-12-19T23:39:19.998Z,4.85
2022-12-19T23:41:46.598Z,4.00
2022-12-19T23:44:13.494Z,4.15
2022-12-19T23:46:40.260Z,4.35
2022-12-19T23:49:06.904Z,4.43
2022-12-19T23:51:33.543Z,4.25
2022-12-19T23:54:00.113Z,4.15
2022-12-19T23:56:29.554Z,4.20
2022-12-19T23:58:56.824Z,4.10
